Time;durP1;ratioP1;P1;durP2;ratioP2;P2;SDS_P1;SDS_P2;PMS_P1;PMS_P2;Temp;Humidity;BMP_temperature;BMP_pressure;BME280_temperature;BME280_humidity;BME280_pressure;Samples;Min_cycle;Max_cycle;Signal;HPM_P1;HPM_P2
2022/12/08 00:02:18;;;;;;;42.80;26.45;;;;;;;;;;5041847;28;20029;-81
2022/12/08 00:10:14;;;;;;;42.88;26.95;;;;;;;;;;5039063;28;20035;-77
2022/12/08 00:12:40;;;;;;;45.17;27.85;;;;;;;;;;5039219;28;20021;-80
2022/12/08 00:15:06;;;;;;;44.75;27.83;;;;;;;;;;5039734;28;20061;-78
2022/12/08 00:17:32;;;;;;;45.22;27.80;;;;;;;;;;5047966;28;20029;-77
2022/12/08 00:19:58;;;;;;;44.20;27.27;;;;;;;;;;5044791;28;20053;-78
2022/12/08 00:22:24;;;;;;;46.17;28.98;;;;;;;;;;5045993;28;20034;-75
2022/12/08 00:24:50;;;;;;;47.30;29.48;;;;;;;;;;5045533;28;20049;-75
2022/12/08 00:27:16;;;;;;;46.22;29.90;;;;;;;;;;5051778;28;20053;-76
2022/12/08 00:29:43;;;;;;;46.65;28.08;;;;;;;;;;5050272;28;20043;-76
2022/12/08 00:32:09;;;;;;;45.90;29.58;;;;;;;;;;5046097;28;20017;-77
2022/12/08 00:34:35;;;;;;;48.20;29.48;;;;;;;;;;5042679;28;20051;-78
2022/12/08 00:37:01;;;;;;;44.38;28.13;;;;;;;;;;5038069;28;20060;-79
2022/12/08 00:39:27;;;;;;;44.33;27.88;;;;;;;;;;5038417;28;20548;-80
2022/12/08 00:44:48;;;;;;;41.03;24.40;;;;;;;;;;5039618;28;20216;-77
2022/12/08 00:47:14;;;;;;;39.35;24.10;;;;;;;;;;5040429;28;20017;-78
2022/12/08 00:49:40;;;;;;;37.65;23.95;;;;;;;;;;5043962;28;20029;-81
2022/12/08 00:52:06;;;;;;;36.60;22.10;;;;;;;;;;5045205;28;20029;-78
2022/12/08 00:54:32;;;;;;;31.75;21.55;;;;;;;;;;5043501;28;20404;-79
2022/12/08 00:56:58;;;;;;;32.95;20.63;;;;;;;;;;5043044;28;20052;-79
2022/12/08 00:59:24;;;;;;;31.83;20.15;;;;;;;;;;5044444;28;20108;-81
2022/12/08 01:01:50;;;;;;;30.38;18.42;;;;;;;;;;5041789;28;20064;-79
2022/12/08 01:04:17;;;;;;;29.85;18.73;;;;;;;;;;5039908;28;20037;-80
2022/12/08 01:06:44;;;;;;;32.10;19.10;;;;;;;;;;5042298;28;20053;-78
2022/12/08 01:09:11;;;;;;;25.25;16.73;;;;;;;;;;5043277;28;20026;-80
2022/12/08 01:11:37;;;;;;;25.02;15.20;;;;;;;;;;5051047;28;20048;-76
2022/12/08 01:14:02;;;;;;;24.70;15.02;;;;;;;;;;5048386;28;20056;-76
2022/12/08 01:16:31;;;;;;;20.25;14.00;;;;;;;;;;5055241;28;20010;-76
2022/12/08 01:18:57;;;;;;;21.92;12.90;;;;;;;;;;5055669;28;20063;-76
2022/12/08 01:21:24;;;;;;;21.80;12.80;;;;;;;;;;5054780;28;20525;-76
2022/12/08 01:23:50;;;;;;;22.27;11.57;;;;;;;;;;5046671;28;20032;-79
2022/12/08 01:26:16;;;;;;;21.42;12.60;;;;;;;;;;5045082;28;20026;-79
2022/12/08 01:28:43;;;;;;;25.13;11.90;;;;;;;;;;5044214;28;20025;-77
2022/12/08 01:31:13;;;;;;;22.60;12.02;;;;;;;;;;5044670;28;20107;-76
2022/12/08 01:33:39;;;;;;;16.88;11.25;;;;;;;;;;5045399;28;20021;-80
2022/12/08 01:36:05;;;;;;;22.73;11.50;;;;;;;;;;5049285;28;20006;-78
2022/12/08 01:38:31;;;;;;;22.35;12.25;;;;;;;;;;5055164;28;20092;-76
2022/12/08 01:40:57;;;;;;;21.05;11.02;;;;;;;;;;5056591;28;20009;-76
2022/12/08 01:43:23;;;;;;;16.92;10.15;;;;;;;;;;5054875;28;20096;-75
2022/12/08 01:45:49;;;;;;;15.73;10.15;;;;;;;;;;5043359;28;20025;-78
2022/12/08 01:48:20;;;;;;;16.35;10.88;;;;;;;;;;5040319;28;20061;-80
2022/12/08 01:50:47;;;;;;;19.80;11.05;;;;;;;;;;5041343;28;20128;-77
2022/12/08 01:53:22;;;;;;;17.67;10.40;;;;;;;;;;5041883;28;20375;-78
2022/12/08 01:55:47;;;;;;;;;;;;;;;;;;5040017;28;20123;-80
2022/12/08 01:58:19;;;;;;;16.00;9.50;;;;;;;;;;5039244;28;20338;-79
2022/12/08 02:00:45;;;;;;;15.15;9.93;;;;;;;;;;5039013;28;20032;-80
2022/12/08 02:03:14;;;;;;;17.35;8.77;;;;;;;;;;5039173;28;20031;-78
2022/12/08 02:05:40;;;;;;;13.82;7.95;;;;;;;;;;5040015;28;20032;-80
2022/12/08 02:08:08;;;;;;;10.98;7.82;;;;;;;;;;5040973;28;20487;-78
2022/12/08 02:10:35;;;;;;;10.45;7.30;;;;;;;;;;5038583;28;20033;-79
2022/12/08 02:13:02;;;;;;;12.20;7.95;;;;;;;;;;5038796;28;20032;-76
2022/12/08 02:15:33;;;;;;;12.43;8.43;;;;;;;;;;5040790;28;20083;-81
2022/12/08 02:18:05;;;;;;;11.48;8.20;;;;;;;;;;5044438;28;20033;-80
2022/12/08 02:20:40;;;;;;;11.35;6.90;;;;;;;;;;5046685;28;20402;-75
2022/12/08 02:23:06;;;;;;;16.95;7.30;;;;;;;;;;5047088;28;20033;-78
2022/12/08 02:25:51;;;;;;;12.63;7.20;;;;;;;;;;5046763;28;20033;-79
2022/12/08 02:28:17;;;;;;;;;;;;;;;;;;5046857;28;20040;-78
2022/12/08 02:31:02;;;;;;;10.57;7.55;;;;;;;;;;5052732;28;19905;-77
2022/12/08 02:33:28;;;;;;;;;;;;;;;;;;5056988;28;20026;-76
2022/12/08 02:36:03;;;;;;;10.18;7.43;;;;;;;;;;5051264;28;19912;-74
2022/12/08 02:38:35;;;;;;;12.38;7.57;;;;;;;;;;5052909;28;20049;-77
2022/12/08 02:41:08;;;;;;;12.65;7.13;;;;;;;;;;5045656;28;20437;-75
2022/12/08 02:43:54;;;;;;;14.98;8.30;;;;;;;;;;5040637;28;20371;-80
2022/12/08 02:46:29;;;;;;;14.10;8.20;;;;;;;;;;5040120;28;20037;-80
2022/12/08 02:48:56;;;;;;;12.93;8.13;;;;;;;;;;5038656;28;20446;-80
2022/12/08 02:51:22;;;;;;;13.82;7.97;;;;;;;;;;5040304;28;20049;-79
2022/12/08 02:53:48;;;;;;;11.30;8.02;;;;;;;;;;5039345;28;20106;-78
2022/12/08 02:56:32;;;;;;;9.77;7.32;;;;;;;;;;5040467;28;20413;-79
2022/12/08 02:59:05;;;;;;;10.88;7.63;;;;;;;;;;5040649;28;20080;-79
2022/12/08 03:01:39;;;;;;;10.57;7.93;;;;;;;;;;5045072;28;20018;-77
2022/12/08 03:04:12;;;;;;;10.80;7.70;;;;;;;;;;5047379;28;20028;-77
2022/12/08 03:06:45;;;;;;;9.85;6.82;;;;;;;;;;5047044;28;20026;-76
2022/12/08 03:09:11;;;;;;;12.23;6.90;;;;;;;;;;5046541;28;20021;-79
2022/12/08 03:12:04;;;;;;;9.63;6.60;;;;;;;;;;5047344;28;20025;-79
2022/12/08 03:14:31;;;;;;;8.85;6.07;;;;;;;;;;5046859;28;20028;-80
2022/12/08 03:16:57;;;;;;;11.73;6.28;;;;;;;;;;5045391;28;20033;-79
2022/12/08 03:19:26;;;;;;;9.85;5.70;;;;;;;;;;5045659;28;20021;-80
2022/12/08 03:21:59;;;;;;;8.88;5.13;;;;;;;;;;5047115;28;20038;-76
2022/12/08 03:24:25;;;;;;;10.35;5.05;;;;;;;;;;5044735;28;20018;-79
2022/12/08 03:26:57;;;;;;;5.82;4.13;;;;;;;;;;5046033;28;20029;-75
2022/12/08 03:29:23;;;;;;;7.68;4.10;;;;;;;;;;5059032;28;20036;-76
2022/12/08 03:31:51;;;;;;;6.18;4.20;;;;;;;;;;5058866;28;20081;-74
2022/12/08 03:34:18;;;;;;;4.63;3.60;;;;;;;;;;5059256;28;20017;-75
2022/12/08 03:36:44;;;;;;;6.18;3.50;;;;;;;;;;5057769;28;20041;-75
2022/12/08 03:39:10;;;;;;;6.10;3.53;;;;;;;;;;5057936;28;20218;-76
2022/12/08 03:41:36;;;;;;;8.13;3.65;;;;;;;;;;5045731;28;20036;-80
2022/12/08 03:44:02;;;;;;;6.32;4.07;;;;;;;;;;5038209;28;20041;-79
2022/12/08 03:46:29;;;;;;;7.25;3.55;;;;;;;;;;5039015;28;20545;-81
2022/12/08 03:48:55;;;;;;;5.50;3.15;;;;;;;;;;5040146;28;20479;-79
2022/12/08 03:51:21;;;;;;;4.47;2.90;;;;;;;;;;5040495;28;20048;-81
2022/12/08 03:53:47;;;;;;;10.35;3.40;;;;;;;;;;5042059;28;20018;-77
2022/12/08 03:56:15;;;;;;;8.20;3.28;;;;;;;;;;5041309;28;20021;-78
2022/12/08 03:58:42;;;;;;;5.70;3.22;;;;;;;;;;5040462;28;20045;-79
2022/12/08 04:01:08;;;;;;;4.90;3.47;;;;;;;;;;5039314;28;20024;-80
2022/12/08 04:03:34;;;;;;;5.97;3.28;;;;;;;;;;5039320;28;20022;-80
2022/12/08 04:06:00;;;;;;;6.40;3.30;;;;;;;;;;5049002;28;20080;-75
2022/12/08 04:08:26;;;;;;;5.35;2.95;;;;;;;;;;5049225;28;20112;-78
2022/12/08 04:10:52;;;;;;;5.10;3.33;;;;;;;;;;5044851;28;20028;-80
2022/12/08 04:13:18;;;;;;;6.30;3.45;;;;;;;;;;5050517;28;20013;-77
2022/12/08 04:15:45;;;;;;;5.55;3.47;;;;;;;;;;5046428;28;20032;-79
2022/12/08 04:18:11;;;;;;;4.05;2.95;;;;;;;;;;5040667;28;20022;-81
2022/12/08 04:20:40;;;;;;;5.38;3.65;;;;;;;;;;5041399;28;20060;-77
2022/12/08 04:23:07;;;;;;;4.70;3.10;;;;;;;;;;5038867;28;20432;-77
2022/12/08 04:25:33;;;;;;;9.10;3.35;;;;;;;;;;5039671;28;20041;-79
2022/12/08 04:27:59;;;;;;;5.80;3.42;;;;;;;;;;5042944;28;20032;-78
2022/12/08 04:30:25;;;;;;;4.90;3.08;;;;;;;;;;5046478;28;20026;-78
2022/12/08 04:32:51;;;;;;;4.15;3.10;;;;;;;;;;5046000;28;20022;-77
2022/12/08 04:35:17;;;;;;;7.63;2.75;;;;;;;;;;5043002;28;20097;-77
2022/12/08 04:37:43;;;;;;;3.50;2.30;;;;;;;;;;5045078;28;20113;-77
2022/12/08 04:40:09;;;;;;;3.33;2.42;;;;;;;;;;5045591;28;20125;-77
2022/12/08 04:42:36;;;;;;;5.20;3.08;;;;;;;;;;5045370;28;20029;-78
2022/12/08 04:45:02;;;;;;;3.20;2.20;;;;;;;;;;5042873;28;20085;-81
2022/12/08 04:47:28;;;;;;;4.07;2.60;;;;;;;;;;5039591;28;20037;-82
2022/12/08 04:49:54;;;;;;;4.93;2.45;;;;;;;;;;5043203;28;20099;-78
2022/12/08 04:52:26;;;;;;;6.20;3.53;;;;;;;;;;5042212;28;20017;-80
2022/12/08 04:54:53;;;;;;;3.20;2.25;;;;;;;;;;5043531;28;20022;-80
2022/12/08 04:57:19;;;;;;;3.05;2.25;;;;;;;;;;5044410;28;20021;-78
2022/12/08 04:59:45;;;;;;;4.63;2.60;;;;;;;;;;5045253;28;20025;-76
2022/12/08 05:02:12;;;;;;;2.97;2.45;;;;;;;;;;5043361;28;20367;-78
2022/12/08 05:04:38;;;;;;;4.50;2.47;;;;;;;;;;5050714;28;20041;-80
2022/12/08 05:07:04;;;;;;;3.30;2.10;;;;;;;;;;5051924;28;20029;-77
2022/12/08 05:09:30;;;;;;;11.50;2.65;;;;;;;;;;5055660;28;20017;-76
2022/12/08 05:11:56;;;;;;;3.97;2.33;;;;;;;;;;5058065;28;20014;-78
2022/12/08 05:14:22;;;;;;;3.65;2.25;;;;;;;;;;5058162;28;20017;-77
2022/12/08 05:16:48;;;;;;;3.10;2.45;;;;;;;;;;5054241;28;20033;-78
2022/12/08 05:19:14;;;;;;;3.45;2.40;;;;;;;;;;5048877;28;20091;-80
2022/12/08 05:21:40;;;;;;;3.03;2.65;;;;;;;;;;5061555;22;20049;-76
2022/12/08 05:24:06;;;;;;;5.05;2.25;;;;;;;;;;5035404;28;20021;-77
2022/12/08 05:26:32;;;;;;;3.47;2.83;;;;;;;;;;5053018;28;20433;-76
2022/12/08 05:28:58;;;;;;;3.67;2.60;;;;;;;;;;5055969;28;20032;-76
2022/12/08 05:31:24;;;;;;;7.55;4.28;;;;;;;;;;5037075;28;20025;-75
2022/12/08 05:33:50;;;;;;;5.57;3.08;;;;;;;;;;5040760;28;20112;-75
2022/12/08 05:36:17;;;;;;;10.27;5.53;;;;;;;;;;5033095;28;20547;-76
2022/12/08 05:38:44;;;;;;;4.13;2.50;;;;;;;;;;5037616;28;20410;-76
2022/12/08 05:41:12;;;;;;;1.77;1.65;;;;;;;;;;5038415;28;20029;-75
2022/12/08 05:43:38;;;;;;;2.78;1.92;;;;;;;;;;5032625;28;20026;-74
2022/12/08 05:46:04;;;;;;;1.65;1.50;;;;;;;;;;5041081;28;20026;-76
2022/12/08 05:48:30;;;;;;;2.83;1.90;;;;;;;;;;5041821;28;20030;-74
2022/12/08 05:50:56;;;;;;;2.78;1.83;;;;;;;;;;5046076;28;20023;-75
2022/12/08 05:53:22;;;;;;;1.83;1.40;;;;;;;;;;5042929;28;20024;-75
2022/12/08 05:55:48;;;;;;;2.20;1.75;;;;;;;;;;5034566;28;20450;-76
2022/12/08 05:58:16;;;;;;;2.22;1.60;;;;;;;;;;5033741;28;20437;-75
2022/12/08 06:00:42;;;;;;;4.07;1.80;;;;;;;;;;5033637;28;20053;-75
2022/12/08 06:03:08;;;;;;;2.92;1.55;;;;;;;;;;5033501;28;20082;-76
2022/12/08 06:05:35;;;;;;;1.40;1.30;;;;;;;;;;5033403;28;20433;-76
2022/12/08 06:08:01;;;;;;;1.75;1.40;;;;;;;;;;5034945;28;20036;-76
2022/12/08 06:10:27;;;;;;;4.68;1.95;;;;;;;;;;5033413;28;20044;-76
2022/12/08 06:12:53;;;;;;;3.80;1.50;;;;;;;;;;5033653;28;20029;-76
2022/12/08 06:15:19;;;;;;;2.55;1.45;;;;;;;;;;5032934;28;20021;-76
2022/12/08 06:17:45;;;;;;;1.92;1.58;;;;;;;;;;5032656;28;20060;-76
2022/12/08 06:20:11;;;;;;;3.17;1.88;;;;;;;;;;5033476;28;20033;-76
2022/12/08 06:22:37;;;;;;;3.13;1.45;;;;;;;;;;5033523;28;20033;-76
2022/12/08 06:25:03;;;;;;;1.95;1.50;;;;;;;;;;5034512;28;20083;-77
2022/12/08 06:27:29;;;;;;;2.03;1.40;;;;;;;;;;5033758;28;20472;-76
2022/12/08 06:29:56;;;;;;;4.82;1.63;;;;;;;;;;5033649;28;20410;-76
2022/12/08 06:32:22;;;;;;;1.75;1.65;;;;;;;;;;5030389;28;20429;-74
2022/12/08 06:34:48;;;;;;;1.70;1.60;;;;;;;;;;5032135;28;20025;-76
2022/12/08 06:37:14;;;;;;;4.18;1.98;;;;;;;;;;5031975;28;20065;-77
2022/12/08 06:39:40;;;;;;;3.30;2.70;;;;;;;;;;5032881;28;20022;-74
2022/12/08 06:44:50;;;;;;;4.20;2.53;;;;;;;;;;5029455;28;20036;-75
2022/12/08 06:47:16;;;;;;;2.80;2.47;;;;;;;;;;5033111;28;20080;-77
2022/12/08 06:49:42;;;;;;;2.83;2.60;;;;;;;;;;5033715;28;20030;-75
2022/12/08 06:52:08;;;;;;;3.92;2.97;;;;;;;;;;5034711;28;20030;-76
2022/12/08 06:54:34;;;;;;;4.28;3.70;;;;;;;;;;5033615;28;20057;-77
2022/12/08 06:57:00;;;;;;;5.38;3.50;;;;;;;;;;5033127;28;20026;-77
2022/12/08 06:59:26;;;;;;;4.53;3.75;;;;;;;;;;5034003;28;20366;-77
2022/12/08 07:01:52;;;;;;;5.47;3.45;;;;;;;;;;5033455;28;20025;-75
2022/12/08 07:04:18;;;;;;;3.60;3.30;;;;;;;;;;5051360;28;20033;-76
2022/12/08 07:06:44;;;;;;;5.15;3.42;;;;;;;;;;5051363;28;20036;-75
2022/12/08 07:09:10;;;;;;;4.95;3.55;;;;;;;;;;5056161;28;20041;-75
2022/12/08 07:11:37;;;;;;;4.95;4.20;;;;;;;;;;5059208;28;20052;-76
2022/12/08 07:14:03;;;;;;;5.43;4.00;;;;;;;;;;5059583;28;20069;-76
2022/12/08 07:16:29;;;;;;;6.95;4.72;;;;;;;;;;5059130;28;20152;-76
2022/12/08 07:18:55;;;;;;;4.47;3.97;;;;;;;;;;5059801;28;20021;-78
2022/12/08 07:21:21;;;;;;;5.45;4.50;;;;;;;;;;5046644;28;20042;-78
2022/12/08 07:23:49;;;;;;;4.82;4.00;;;;;;;;;;5042400;28;20109;-76
2022/12/08 07:26:15;;;;;;;7.50;4.55;;;;;;;;;;5035899;28;20398;-76
2022/12/08 07:28:41;;;;;;;5.00;4.20;;;;;;;;;;5036432;28;20034;-77
2022/12/08 07:31:15;;;;;;;7.40;5.18;;;;;;;;;;5040526;28;20056;-77
2022/12/08 07:33:42;;;;;;;6.43;5.13;;;;;;;;;;5040759;28;20067;-77
2022/12/08 07:36:08;;;;;;;7.38;5.50;;;;;;;;;;5041405;28;20077;-77
2022/12/08 07:38:34;;;;;;;7.03;5.95;;;;;;;;;;5045566;28;20032;-77
2022/12/08 07:41:00;;;;;;;6.75;5.20;;;;;;;;;;5051523;28;20081;-78
2022/12/08 07:43:26;;;;;;;7.95;5.22;;;;;;;;;;5040593;28;20030;-73
2022/12/08 07:45:52;;;;;;;8.55;5.70;;;;;;;;;;5039654;28;20256;-79
2022/12/08 07:48:18;;;;;;;6.53;5.22;;;;;;;;;;5042297;28;20085;-78
2022/12/08 07:50:45;;;;;;;7.43;5.70;;;;;;;;;;5039838;28;20418;-72
2022/12/08 07:53:11;;;;;;;6.53;5.45;;;;;;;;;;5035364;28;20033;-73
2022/12/08 07:55:43;;;;;;;8.68;6.18;;;;;;;;;;5034266;28;20504;-73
2022/12/08 07:58:10;;;;;;;8.13;5.55;;;;;;;;;;5040576;28;20091;-80
2022/12/08 08:00:36;;;;;;;6.07;5.38;;;;;;;;;;5039105;28;20120;-74
2022/12/08 08:03:02;;;;;;;16.52;10.88;;;;;;;;;;5037829;28;20053;-78
2022/12/08 08:05:28;;;;;;;10.88;6.20;;;;;;;;;;5042987;28;20034;-82
2022/12/08 08:07:54;;;;;;;7.25;5.78;;;;;;;;;;5043591;28;20041;-77
2022/12/08 08:10:20;;;;;;;9.40;5.97;;;;;;;;;;5039949;28;20029;-75
2022/12/08 08:12:46;;;;;;;14.38;8.75;;;;;;;;;;5039083;28;20025;-75
2022/12/08 08:15:12;;;;;;;6.63;5.72;;;;;;;;;;5037724;28;20052;-74
2022/12/08 08:17:38;;;;;;;6.90;5.70;;;;;;;;;;5035413;28;20029;-75
2022/12/08 08:20:08;;;;;;;8.63;5.40;;;;;;;;;;5038345;28;20032;-74
2022/12/08 08:22:34;;;;;;;7.40;6.15;;;;;;;;;;5035432;28;20060;-75
2022/12/08 08:25:00;;;;;;;6.78;5.50;;;;;;;;;;5034618;28;20022;-77
2022/12/08 08:27:26;;;;;;;7.38;5.70;;;;;;;;;;5032773;28;20033;-76
2022/12/08 08:29:52;;;;;;;8.43;5.95;;;;;;;;;;5034191;28;20021;-74
2022/12/08 08:32:19;;;;;;;6.82;5.90;;;;;;;;;;5034263;28;20021;-76
2022/12/08 08:34:44;;;;;;;9.23;6.20;;;;;;;;;;5034782;28;20053;-74
2022/12/08 08:37:11;;;;;;;7.38;6.22;;;;;;;;;;5034120;28;20394;-75
2022/12/08 08:39:37;;;;;;;6.75;6.05;;;;;;;;;;5035105;28;20044;-74
2022/12/08 08:42:03;;;;;;;12.30;6.55;;;;;;;;;;5034916;28;20033;-74
2022/12/08 08:44:29;;;;;;;12.25;7.00;;;;;;;;;;5038870;28;20040;-74
2022/12/08 08:46:55;;;;;;;15.15;7.28;;;;;;;;;;5043875;28;20034;-74
2022/12/08 08:49:21;;;;;;;8.82;6.55;;;;;;;;;;5046427;28;20029;-75
2022/12/08 08:51:47;;;;;;;10.40;7.28;;;;;;;;;;5046536;28;20034;-75
2022/12/08 08:54:13;;;;;;;7.57;5.78;;;;;;;;;;5044182;28;20022;-72
2022/12/08 08:56:39;;;;;;;21.75;12.98;;;;;;;;;;5045687;28;20033;-74
2022/12/08 08:59:05;;;;;;;17.23;8.68;;;;;;;;;;5038625;28;20026;-75
2022/12/08 09:01:31;;;;;;;7.82;6.72;;;;;;;;;;5038834;28;20022;-74
2022/12/08 09:03:57;;;;;;;8.50;5.60;;;;;;;;;;5034845;28;20045;-74
2022/12/08 09:06:24;;;;;;;130.45;39.25;;;;;;;;;;5032271;28;20021;-76
2022/12/08 09:08:50;;;;;;;14.13;7.88;;;;;;;;;;5032603;28;20021;-74
2022/12/08 09:11:17;;;;;;;9.32;6.72;;;;;;;;;;5037519;28;20053;-75
2022/12/08 09:13:43;;;;;;;18.40;10.77;;;;;;;;;;5033440;28;20025;-74
2022/12/08 09:16:10;;;;;;;14.27;10.23;;;;;;;;;;5031921;28;20053;-76
2022/12/08 09:18:36;;;;;;;11.98;7.78;;;;;;;;;;5032827;28;20079;-75
2022/12/08 09:21:07;;;;;;;10.80;6.80;;;;;;;;;;5033115;28;20045;-75
2022/12/08 09:23:33;;;;;;;9.77;7.68;;;;;;;;;;5033259;28;20026;-76
2022/12/08 09:25:59;;;;;;;9.15;7.18;;;;;;;;;;5035146;28;20025;-77
2022/12/08 09:28:25;;;;;;;9.40;7.82;;;;;;;;;;5037702;28;20437;-76
2022/12/08 09:30:51;;;;;;;14.35;10.52;;;;;;;;;;5036037;28;20029;-75
2022/12/08 09:33:17;;;;;;;12.18;9.20;;;;;;;;;;5040860;28;20029;-74
2022/12/08 09:35:43;;;;;;;12.85;8.82;;;;;;;;;;5039409;28;20352;-75
2022/12/08 09:38:09;;;;;;;13.45;9.10;;;;;;;;;;5038521;28;20033;-74
2022/12/08 09:40:39;;;;;;;13.45;8.98;;;;;;;;;;5037097;28;20068;-75
2022/12/08 09:43:25;;;;;;;13.70;10.27;;;;;;;;;;5041320;28;20147;-74
2022/12/08 09:45:52;;;;;;;12.65;9.55;;;;;;;;;;5004241;28;20045;-76
2022/12/08 09:48:19;;;;;;;13.45;10.13;;;;;;;;;;5033476;28;20029;-74
2022/12/08 09:50:54;;;;;;;12.65;9.75;;;;;;;;;;5035607;28;20049;-74
2022/12/08 09:53:20;;;;;;;;;;;;;;;;;;5034912;28;20021;-76
2022/12/08 09:55:48;;;;;;;14.70;10.00;;;;;;;;;;5040522;28;19905;-77
2022/12/08 09:58:33;;;;;;;124.20;41.05;;;;;;;;;;5041596;28;20053;-74
2022/12/08 10:00:59;;;;;;;17.70;11.95;;;;;;;;;;5036194;28;20037;-75
2022/12/08 10:03:27;;;;;;;14.68;10.55;;;;;;;;;;5034682;28;20470;-74
2022/12/08 10:05:57;;;;;;;13.88;10.38;;;;;;;;;;5035883;28;20029;-76
2022/12/08 10:08:30;;;;;;;12.10;8.70;;;;;;;;;;5036210;28;20079;-77
2022/12/08 10:10:58;;;;;;;46.22;17.52;;;;;;;;;;5036482;28;20026;-81
2022/12/08 10:13:33;;;;;;;17.08;9.55;;;;;;;;;;5038806;28;20026;-80
2022/12/08 10:16:18;;;;;;;16.13;10.40;;;;;;;;;;5039932;28;20032;-82
2022/12/08 10:18:44;;;;;;;12.60;8.43;;;;;;;;;;5035407;28;20059;-75
2022/12/08 10:21:13;;;;;;;8.27;7.35;;;;;;;;;;5035659;28;20077;-74
2022/12/08 10:23:40;;;;;;;9.30;7.28;;;;;;;;;;5035085;28;20119;-74
2022/12/08 10:26:10;;;;;;;11.77;7.20;;;;;;;;;;5035331;28;20025;-76
2022/12/08 10:28:36;;;;;;;9.43;7.55;;;;;;;;;;5036054;28;20065;-76
2022/12/08 10:31:02;;;;;;;10.35;7.40;;;;;;;;;;5044267;28;20033;-75
2022/12/08 10:33:31;;;;;;;10.40;7.35;;;;;;;;;;5034789;28;20017;-75
2022/12/08 10:35:58;;;;;;;10.63;7.38;;;;;;;;;;5040011;28;20034;-76
2022/12/08 10:38:26;;;;;;;73.38;30.40;;;;;;;;;;5040677;28;20037;-78
2022/12/08 10:40:56;;;;;;;27.30;15.65;;;;;;;;;;5040894;28;20394;-79
2022/12/08 10:43:25;;;;;;;36.55;17.83;;;;;;;;;;5040743;28;20026;-75
2022/12/08 10:45:51;;;;;;;13.82;8.20;;;;;;;;;;5036999;28;20053;-75
2022/12/08 10:48:19;;;;;;;26.08;13.88;;;;;;;;;;5037289;28;20030;-76
2022/12/08 10:50:56;;;;;;;47.42;26.35;;;;;;;;;;5037155;28;20018;-76
2022/12/08 10:53:24;;;;;;;11.43;7.80;;;;;;;;;;5035776;28;20459;-76
2022/12/08 10:55:50;;;;;;;7.32;5.88;;;;;;;;;;5035326;28;20022;-75
2022/12/08 10:58:26;;;;;;;8.40;5.45;;;;;;;;;;5038518;28;20031;-76
2022/12/08 11:00:54;;;;;;;11.23;7.50;;;;;;;;;;5048806;28;20029;-77
2022/12/08 11:03:30;;;;;;;9.48;6.03;;;;;;;;;;5054566;28;20032;-78
2022/12/08 11:05:57;;;;;;;7.55;5.70;;;;;;;;;;5037712;28;20029;-77
2022/12/08 11:08:24;;;;;;;9.68;6.60;;;;;;;;;;5037553;28;20026;-77
2022/12/08 11:10:50;;;;;;;7.03;5.55;;;;;;;;;;5035966;28;20022;-79
2022/12/08 11:13:21;;;;;;;16.40;8.02;;;;;;;;;;5051853;28;20026;-77
2022/12/08 11:15:49;;;;;;;8.75;6.65;;;;;;;;;;5049400;28;20053;-78
2022/12/08 11:18:38;;;;;;;14.88;6.70;;;;;;;;;;5050411;28;20076;-77
2022/12/08 11:21:13;;;;;;;10.02;6.55;;;;;;;;;;5049908;28;20033;-76
2022/12/08 11:23:39;;;;;;;;;;;;;;;;;;5046888;28;20022;-78
2022/12/08 11:26:25;;;;;;;11.30;7.60;;;;;;;;;;5045547;28;19911;-76
2022/12/08 11:28:51;;;;;;;9.77;6.38;;;;;;;;;;5043318;28;20114;-77
2022/12/08 11:31:24;;;;;;;7.97;5.80;;;;;;;;;;5037184;28;20079;-78
2022/12/08 11:33:51;;;;;;;10.07;6.53;;;;;;;;;;5035305;28;20099;-77
2022/12/08 11:36:17;;;;;;;8.02;6.57;;;;;;;;;;5036185;28;20061;-77
2022/12/08 11:38:46;;;;;;;8.80;6.13;;;;;;;;;;5035674;28;20024;-75
2022/12/08 11:41:14;;;;;;;9.05;6.32;;;;;;;;;;5034914;28;20021;-76
2022/12/08 11:43:45;;;;;;;10.60;7.03;;;;;;;;;;5040370;28;20116;-78
2022/12/08 11:46:13;;;;;;;7.43;5.90;;;;;;;;;;5043432;28;20064;-76
2022/12/08 11:48:50;;;;;;;10.07;6.28;;;;;;;;;;5041533;28;20105;-76
2022/12/08 11:51:23;;;;;;;8.15;6.43;;;;;;;;;;5041242;28;20039;-77
2022/12/08 11:54:02;;;;;;;8.00;6.40;;;;;;;;;;5039488;28;20021;-77
2022/12/08 11:56:39;;;;;;;10.77;7.22;;;;;;;;;;5041913;28;21283;-78
2022/12/08 11:59:23;;;;;;;12.75;6.97;;;;;;;;;;5040613;28;20021;-77
2022/12/08 12:01:49;;;;;;;9.63;6.88;;;;;;;;;;5043774;28;20022;-77
2022/12/08 12:04:24;;;;;;;8.10;6.43;;;;;;;;;;5043635;28;20030;-78
2022/12/08 12:07:09;;;;;;;8.43;5.93;;;;;;;;;;5040061;28;20060;-78
2022/12/08 12:09:51;;;;;;;7.13;5.75;;;;;;;;;;5045992;28;20032;-79
2022/12/08 12:12:26;;;;;;;8.85;5.95;;;;;;;;;;5041162;28;20040;-77
2022/12/08 12:15:11;;;;;;;9.27;5.88;;;;;;;;;;5034167;28;20018;-76
2022/12/08 12:17:48;;;;;;;7.20;5.60;;;;;;;;;;5019439;28;20068;-77
2022/12/08 12:20:20;;;;;;;9.85;6.50;;;;;;;;;;5043220;28;20057;-78
2022/12/08 12:22:49;;;;;;;13.00;8.10;;;;;;;;;;5033644;28;20033;-78
2022/12/08 12:25:17;;;;;;;12.88;7.63;;;;;;;;;;5033608;28;20033;-76
2022/12/08 12:27:43;;;;;;;9.25;6.72;;;;;;;;;;5033100;28;20026;-77
2022/12/08 12:30:18;;;;;;;9.13;6.63;;;;;;;;;;5034537;28;20459;-77
2022/12/08 12:32:47;;;;;;;8.23;6.80;;;;;;;;;;5030570;28;20574;-76
2022/12/08 12:35:15;;;;;;;11.40;7.43;;;;;;;;;;5032437;28;20487;-78
2022/12/08 12:37:42;;;;;;;14.88;8.60;;;;;;;;;;5033359;28;20037;-76
2022/12/08 12:40:19;;;;;;;11.48;7.90;;;;;;;;;;5034138;28;20033;-76
2022/12/08 12:42:49;;;;;;;17.75;9.65;;;;;;;;;;5031686;28;20066;-76
2022/12/08 12:45:15;;;;;;;14.20;8.95;;;;;;;;;;5031655;28;20017;-78
2022/12/08 12:47:44;;;;;;;20.15;9.45;;;;;;;;;;5033019;28;20096;-76
2022/12/08 12:50:11;;;;;;;14.07;9.05;;;;;;;;;;5033129;28;20459;-77
2022/12/08 12:52:38;;;;;;;17.05;9.32;;;;;;;;;;5032777;28;20026;-77
2022/12/08 12:55:10;;;;;;;13.60;8.07;;;;;;;;;;5034017;28;20026;-76
2022/12/08 12:57:38;;;;;;;139.27;64.25;;;;;;;;;;5032968;28;20399;-77
2022/12/08 13:00:04;;;;;;;25.27;14.65;;;;;;;;;;5033352;28;20055;-76
2022/12/08 13:02:36;;;;;;;17.70;11.05;;;;;;;;;;5035149;28;20021;-78
2022/12/08 13:05:07;;;;;;;27.58;10.95;;;;;;;;;;5034263;28;20044;-76
2022/12/08 13:07:35;;;;;;;18.88;10.48;;;;;;;;;;5035101;28;20027;-77
2022/12/08 13:10:16;;;;;;;17.75;11.57;;;;;;;;;;5033478;28;20030;-77
2022/12/08 13:12:43;;;;;;;23.08;11.93;;;;;;;;;;5035879;28;20100;-78
2022/12/08 13:15:16;;;;;;;15.50;10.85;;;;;;;;;;5036145;28;20081;-78
2022/12/08 13:17:44;;;;;;;15.25;10.52;;;;;;;;;;5034503;28;20021;-78
2022/12/08 13:20:18;;;;;;;14.93;9.02;;;;;;;;;;5034893;28;20021;-78
2022/12/08 13:22:44;;;;;;;;;;;;;;;;;;5049556;28;20043;-78
2022/12/08 13:25:29;;;;;;;24.08;13.85;;;;;;;;;;5055444;28;19924;-77
2022/12/08 13:27:55;;;;;;;18.98;11.70;;;;;;;;;;5056109;28;20039;-77
2022/12/08 13:30:40;;;;;;;13.05;9.70;;;;;;;;;;5041305;28;20124;-77
2022/12/08 13:33:10;;;;;;;13.90;8.60;;;;;;;;;;5034485;28;20013;-78
2022/12/08 13:35:39;;;;;;;10.43;8.68;;;;;;;;;;5033381;28;20053;-77
2022/12/08 13:38:05;;;;;;;11.75;9.20;;;;;;;;;;5035917;28;20108;-79
2022/12/08 13:40:31;;;;;;;15.40;10.65;;;;;;;;;;5046183;28;20096;-80
2022/12/08 13:43:04;;;;;;;10.45;7.18;;;;;;;;;;5040910;28;20801;-76
2022/12/08 13:45:30;;;;;;;10.57;8.20;;;;;;;;;;5038233;28;20414;-77
2022/12/08 13:48:05;;;;;;;13.18;8.00;;;;;;;;;;5040631;28;20143;-77
2022/12/08 13:50:54;;;;;;;12.10;8.25;;;;;;;;;;5035869;28;20034;-77
2022/12/08 13:53:28;;;;;;;175.00;65.85;;;;;;;;;;5035395;28;20041;-77
2022/12/08 13:56:00;;;;;;;28.45;15.68;;;;;;;;;;5035936;28;20025;-78
2022/12/08 13:58:27;;;;;;;16.40;11.27;;;;;;;;;;5036370;28;20032;-77
2022/12/08 14:00:59;;;;;;;21.10;14.38;;;;;;;;;;5038378;28;20041;-77
2022/12/08 14:03:25;;;;;;;17.58;12.73;;;;;;;;;;5044990;28;20053;-77
2022/12/08 14:05:51;;;;;;;13.30;10.55;;;;;;;;;;5039673;28;20451;-77
2022/12/08 14:08:31;;;;;;;16.85;11.63;;;;;;;;;;5037259;28;20037;-76
2022/12/08 14:11:02;;;;;;;18.35;12.15;;;;;;;;;;5035886;28;20040;-77
2022/12/08 14:13:29;;;;;;;95.07;49.35;;;;;;;;;;5037636;28;20390;-77
2022/12/08 14:15:55;;;;;;;18.13;12.00;;;;;;;;;;5038444;28;20022;-77
2022/12/08 14:18:25;;;;;;;63.97;33.78;;;;;;;;;;5038350;28;20048;-76
2022/12/08 14:20:59;;;;;;;43.05;23.98;;;;;;;;;;5040521;28;20033;-76
2022/12/08 14:23:25;;;;;;;27.02;15.35;;;;;;;;;;5057089;28;20010;-77
2022/12/08 14:25:51;;;;;;;16.42;10.73;;;;;;;;;;5059958;28;20051;-77
2022/12/08 14:28:17;;;;;;;13.48;10.05;;;;;;;;;;5060079;28;20236;-78
2022/12/08 14:30:44;;;;;;;14.73;9.25;;;;;;;;;;5059416;28;20013;-78
2022/12/08 14:33:15;;;;;;;15.68;10.05;;;;;;;;;;5056424;28;20029;-76
2022/12/08 14:35:41;;;;;;;16.75;10.15;;;;;;;;;;5052730;28;20033;-77
2022/12/08 14:38:14;;;;;;;17.55;10.20;;;;;;;;;;5049489;28;20040;-76
2022/12/08 14:40:44;;;;;;;14.60;9.35;;;;;;;;;;5048572;28;20029;-77
2022/12/08 14:43:12;;;;;;;12.98;9.43;;;;;;;;;;5043717;28;20025;-77
2022/12/08 14:45:44;;;;;;;13.82;9.95;;;;;;;;;;5047720;28;20093;-77
2022/12/08 14:48:20;;;;;;;13.77;9.48;;;;;;;;;;5040929;28;20033;-77
2022/12/08 14:51:00;;;;;;;19.48;10.65;;;;;;;;;;5049684;28;20022;-75
2022/12/08 14:53:29;;;;;;;21.02;10.07;;;;;;;;;;5044384;28;20032;-77